sensor_id;sensor_type;location;lat;lon;timestamp;P1;durP1;ratioP1;P2;durP2;ratioP2
38797;SDS011;24546;52.240;16.826;2022-12-20T00:01:34;72.00;;;32.63;;
38797;SDS011;24546;52.240;16.826;2022-12-20T00:06:35;72.70;;;31.73;;
38797;SDS011;24546;52.240;16.826;2022-12-20T00:11:38;65.43;;;30.95;;
38797;SDS011;24546;52.240;16.826;2022-12-20T00:16:40;72.40;;;32.92;;
38797;SDS011;24546;52.240;16.826;2022-12-20T00:21:42;67.95;;;31.15;;
38797;SDS011;24546;52.240;16.826;2022-12-20T00:26:43;65.18;;;28.80;;
38797;SDS011;24546;52.240;16.826;2022-12-20T00:31:44;61.10;;;30.70;;
38797;SDS011;24546;52.240;16.826;2022-12-20T00:36:45;53.42;;;26.70;;
38797;SDS011;24546;52.240;16.826;2022-12-20T00:41:46;58.85;;;27.67;;
38797;SDS011;24546;52.240;16.826;2022-12-20T00:46:47;70.18;;;30.05;;
38797;SDS011;24546;52.240;16.826;2022-12-20T00:51:48;61.10;;;29.42;;
38797;SDS011;24546;52.240;16.826;2022-12-20T00:56:49;63.38;;;30.13;;
38797;SDS011;24546;52.240;16.826;2022-12-20T01:01:50;63.85;;;29.10;;
38797;SDS011;24546;52.240;16.826;2022-12-20T01:06:53;59.13;;;29.75;;
38797;SDS011;24546;52.240;16.826;2022-12-20T01:11:54;67.25;;;30.48;;
38797;SDS011;24546;52.240;16.826;2022-12-20T01:16:56;63.47;;;27.90;;
38797;SDS011;24546;52.240;16.826;2022-12-20T01:21:58;68.45;;;30.58;;
38797;SDS011;24546;52.240;16.826;2022-12-20T01:26:58;64.25;;;29.27;;
38797;SDS011;24546;52.240;16.826;2022-12-20T01:31:59;59.67;;;28.13;;
38797;SDS011;24546;52.240;16.826;2022-12-20T01:37:00;55.72;;;26.85;;
38797;SDS011;24546;52.240;16.826;2022-12-20T01:42:01;65.45;;;30.55;;
38797;SDS011;24546;52.240;16.826;2022-12-20T01:47:02;64.88;;;29.80;;
38797;SDS011;24546;52.240;16.826;2022-12-20T01:57:07;65.25;;;26.00;;
38797;SDS011;24546;52.240;16.826;2022-12-20T02:02:13;60.13;;;27.63;;
38797;SDS011;24546;52.240;16.826;2022-12-20T02:07:16;63.75;;;30.42;;
38797;SDS011;24546;52.240;16.826;2022-12-20T02:12:24;59.30;;;26.65;;
38797;SDS011;24546;52.240;16.826;2022-12-20T02:23:10;62.22;;;29.52;;
38797;SDS011;24546;52.240;16.826;2022-12-20T02:34:07;63.40;;;27.30;;
38797;SDS011;24546;52.240;16.826;2022-12-20T02:39:12;57.38;;;26.17;;
38797;SDS011;24546;52.240;16.826;2022-12-20T02:44:17;53.63;;;26.88;;
38797;SDS011;24546;52.240;16.826;2022-12-20T02:49:39;57.10;;;25.80;;
38797;SDS011;24546;52.240;16.826;2022-12-20T02:54:42;50.28;;;25.85;;
38797;SDS011;24546;52.240;16.826;2022-12-20T03:00:00;51.10;;;23.90;;
38797;SDS011;24546;52.240;16.826;2022-12-20T03:05:12;53.13;;;24.10;;
38797;SDS011;24546;52.240;16.826;2022-12-20T03:10:14;51.67;;;23.50;;
38797;SDS011;24546;52.240;16.826;2022-12-20T03:15:16;52.22;;;24.95;;
38797;SDS011;24546;52.240;16.826;2022-12-20T03:20:17;51.85;;;26.40;;
38797;SDS011;24546;52.240;16.826;2022-12-20T03:25:19;50.55;;;25.63;;
38797;SDS011;24546;52.240;16.826;2022-12-20T03:30:20;50.92;;;23.80;;
38797;SDS011;24546;52.240;16.826;2022-12-20T03:35:21;53.83;;;24.90;;
38797;SDS011;24546;52.240;16.826;2022-12-20T03:40:22;57.47;;;26.23;;
38797;SDS011;24546;52.240;16.826;2022-12-20T03:45:23;47.17;;;23.27;;
38797;SDS011;24546;52.240;16.826;2022-12-20T03:50:24;53.45;;;25.45;;
38797;SDS011;24546;52.240;16.826;2022-12-20T03:55:25;57.28;;;27.05;;
38797;SDS011;24546;52.240;16.826;2022-12-20T04:00:26;47.72;;;24.65;;
38797;SDS011;24546;52.240;16.826;2022-12-20T04:05:37;49.90;;;24.65;;
38797;SDS011;24546;52.240;16.826;2022-12-20T04:10:39;48.13;;;25.40;;
38797;SDS011;24546;52.240;16.826;2022-12-20T04:16:06;54.85;;;27.30;;
38797;SDS011;24546;52.240;16.826;2022-12-20T04:21:08;46.83;;;24.20;;
38797;SDS011;24546;52.240;16.826;2022-12-20T04:26:14;54.75;;;25.75;;
38797;SDS011;24546;52.240;16.826;2022-12-20T04:31:15;54.60;;;26.05;;
38797;SDS011;24546;52.240;16.826;2022-12-20T04:36:16;55.72;;;27.65;;
38797;SDS011;24546;52.240;16.826;2022-12-20T04:41:17;51.25;;;26.98;;
38797;SDS011;24546;52.240;16.826;2022-12-20T04:46:30;56.97;;;30.00;;
38797;SDS011;24546;52.240;16.826;2022-12-20T04:51:34;51.58;;;25.02;;
38797;SDS011;24546;52.240;16.826;2022-12-20T04:56:35;53.13;;;26.83;;
38797;SDS011;24546;52.240;16.826;2022-12-20T05:06:44;52.75;;;26.10;;
38797;SDS011;24546;52.240;16.826;2022-12-20T05:11:45;51.22;;;25.52;;
38797;SDS011;24546;52.240;16.826;2022-12-20T05:16:46;52.20;;;27.10;;
38797;SDS011;24546;52.240;16.826;2022-12-20T05:21:48;49.17;;;25.58;;
38797;SDS011;24546;52.240;16.826;2022-12-20T05:27:10;45.80;;;25.45;;
38797;SDS011;24546;52.240;16.826;2022-12-20T05:32:12;50.60;;;25.13;;
38797;SDS011;24546;52.240;16.826;2022-12-20T05:37:15;47.95;;;26.08;;
38797;SDS011;24546;52.240;16.826;2022-12-20T05:42:17;51.10;;;26.23;;
38797;SDS011;24546;52.240;16.826;2022-12-20T05:47:18;46.97;;;24.77;;
38797;SDS011;24546;52.240;16.826;2022-12-20T05:52:19;54.08;;;27.48;;
38797;SDS011;24546;52.240;16.826;2022-12-20T05:57:21;45.88;;;24.17;;
38797;SDS011;24546;52.240;16.826;2022-12-20T06:02:22;51.72;;;26.63;;
38797;SDS011;24546;52.240;16.826;2022-12-20T06:07:28;47.08;;;24.40;;
38797;SDS011;24546;52.240;16.826;2022-12-20T06:12:33;55.20;;;26.52;;
38797;SDS011;24546;52.240;16.826;2022-12-20T06:17:34;56.85;;;28.58;;
38797;SDS011;24546;52.240;16.826;2022-12-20T06:22:35;45.65;;;22.73;;
38797;SDS011;24546;52.240;16.826;2022-12-20T06:27:38;52.67;;;27.02;;
38797;SDS011;24546;52.240;16.826;2022-12-20T06:32:43;38.00;;;19.50;;
38797;SDS011;24546;52.240;16.826;2022-12-20T06:37:45;55.90;;;28.55;;
38797;SDS011;24546;52.240;16.826;2022-12-20T06:42:47;55.13;;;25.83;;
38797;SDS011;24546;52.240;16.826;2022-12-20T06:47:50;57.03;;;28.67;;
38797;SDS011;24546;52.240;16.826;2022-12-20T06:52:51;54.03;;;26.17;;
38797;SDS011;24546;52.240;16.826;2022-12-20T06:57:52;45.33;;;24.60;;
38797;SDS011;24546;52.240;16.826;2022-12-20T07:02:54;54.30;;;27.38;;
38797;SDS011;24546;52.240;16.826;2022-12-20T07:07:55;54.05;;;27.73;;
38797;SDS011;24546;52.240;16.826;2022-12-20T07:12:57;48.35;;;24.00;;
38797;SDS011;24546;52.240;16.826;2022-12-20T07:17:58;56.65;;;27.92;;
38797;SDS011;24546;52.240;16.826;2022-12-20T07:22:59;55.50;;;26.85;;
38797;SDS011;24546;52.240;16.826;2022-12-20T07:28:00;53.92;;;28.17;;
38797;SDS011;24546;52.240;16.826;2022-12-20T07:33:01;51.60;;;25.70;;
38797;SDS011;24546;52.240;16.826;2022-12-20T07:38:03;50.95;;;25.63;;
38797;SDS011;24546;52.240;16.826;2022-12-20T07:43:04;55.33;;;27.52;;
38797;SDS011;24546;52.240;16.826;2022-12-20T07:48:05;62.38;;;29.35;;
38797;SDS011;24546;52.240;16.826;2022-12-20T07:53:06;60.22;;;29.17;;
38797;SDS011;24546;52.240;16.826;2022-12-20T07:58:08;57.35;;;28.77;;
38797;SDS011;24546;52.240;16.826;2022-12-20T08:03:25;58.13;;;28.40;;
38797;SDS011;24546;52.240;16.826;2022-12-20T08:08:31;53.20;;;28.33;;
38797;SDS011;24546;52.240;16.826;2022-12-20T08:13:36;54.65;;;27.98;;
38797;SDS011;24546;52.240;16.826;2022-12-20T08:18:37;56.67;;;29.10;;
38797;SDS011;24546;52.240;16.826;2022-12-20T08:23:38;55.33;;;27.20;;
38797;SDS011;24546;52.240;16.826;2022-12-20T08:28:38;64.85;;;30.73;;
38797;SDS011;24546;52.240;16.826;2022-12-20T08:33:39;59.40;;;29.95;;
38797;SDS011;24546;52.240;16.826;2022-12-20T08:38:40;58.75;;;31.13;;
38797;SDS011;24546;52.240;16.826;2022-12-20T08:43:42;51.25;;;28.05;;
38797;SDS011;24546;52.240;16.826;2022-12-20T08:48:43;48.13;;;26.13;;
38797;SDS011;24546;52.240;16.826;2022-12-20T08:53:44;52.72;;;24.75;;
38797;SDS011;24546;52.240;16.826;2022-12-20T08:58:44;47.00;;;25.08;;
38797;SDS011;24546;52.240;16.826;2022-12-20T09:03:46;56.30;;;27.50;;
38797;SDS011;24546;52.240;16.826;2022-12-20T09:08:48;46.67;;;25.33;;
38797;SDS011;24546;52.240;16.826;2022-12-20T09:13:50;53.38;;;28.77;;
38797;SDS011;24546;52.240;16.826;2022-12-20T09:18:53;53.15;;;25.40;;
38797;SDS011;24546;52.240;16.826;2022-12-20T09:23:56;48.00;;;26.65;;
38797;SDS011;24546;52.240;16.826;2022-12-20T09:28:57;47.38;;;25.70;;
38797;SDS011;24546;52.240;16.826;2022-12-20T09:33:58;47.70;;;25.90;;
38797;SDS011;24546;52.240;16.826;2022-12-20T09:39:00;44.75;;;23.63;;
38797;SDS011;24546;52.240;16.826;2022-12-20T09:44:09;47.40;;;23.92;;
38797;SDS011;24546;52.240;16.826;2022-12-20T09:49:21;48.72;;;24.65;;
38797;SDS011;24546;52.240;16.826;2022-12-20T09:59:50;51.05;;;25.92;;
38797;SDS011;24546;52.240;16.826;2022-12-20T10:04:55;47.13;;;23.60;;
38797;SDS011;24546;52.240;16.826;2022-12-20T10:15:18;48.17;;;25.00;;
38797;SDS011;24546;52.240;16.826;2022-12-20T10:26:09;48.17;;;25.33;;
38797;SDS011;24546;52.240;16.826;2022-12-20T10:31:13;50.00;;;28.73;;
38797;SDS011;24546;52.240;16.826;2022-12-20T10:36:23;54.15;;;28.98;;
38797;SDS011;24546;52.240;16.826;2022-12-20T10:41:29;54.65;;;28.85;;
38797;SDS011;24546;52.240;16.826;2022-12-20T10:46:51;47.58;;;26.67;;
38797;SDS011;24546;52.240;16.826;2022-12-20T10:52:10;54.90;;;30.15;;
38797;SDS011;24546;52.240;16.826;2022-12-20T10:57:20;45.83;;;25.03;;
38797;SDS011;24546;52.240;16.826;2022-12-20T11:02:30;53.20;;;28.70;;
38797;SDS011;24546;52.240;16.826;2022-12-20T11:07:31;45.60;;;25.60;;
38797;SDS011;24546;52.240;16.826;2022-12-20T11:12:33;52.38;;;28.50;;
38797;SDS011;24546;52.240;16.826;2022-12-20T11:17:42;50.60;;;25.42;;
38797;SDS011;24546;52.240;16.826;2022-12-20T11:28:07;49.47;;;25.70;;
38797;SDS011;24546;52.240;16.826;2022-12-20T12:00:13;41.78;;;22.90;;
38797;SDS011;24546;52.240;16.826;2022-12-20T12:05:38;43.20;;;23.48;;
38797;SDS011;24546;52.240;16.826;2022-12-20T12:10:58;41.97;;;22.65;;
38797;SDS011;24546;52.240;16.826;2022-12-20T12:16:25;42.60;;;23.52;;
38797;SDS011;24546;52.240;16.826;2022-12-20T12:21:34;45.28;;;24.10;;
38797;SDS011;24546;52.240;16.826;2022-12-20T12:26:49;46.53;;;25.60;;
38797;SDS011;24546;52.240;16.826;2022-12-20T12:31:54;44.45;;;24.52;;
38797;SDS011;24546;52.240;16.826;2022-12-20T12:37:14;52.63;;;27.17;;
38797;SDS011;24546;52.240;16.826;2022-12-20T12:53:50;50.80;;;27.92;;
38797;SDS011;24546;52.240;16.826;2022-12-20T13:04:20;51.03;;;28.52;;
38797;SDS011;24546;52.240;16.826;2022-12-20T13:30:34;45.40;;;27.45;;
38797;SDS011;24546;52.240;16.826;2022-12-20T13:40:41;50.15;;;25.95;;
38797;SDS011;24546;52.240;16.826;2022-12-20T13:45:42;53.00;;;28.52;;
38797;SDS011;24546;52.240;16.826;2022-12-20T13:50:50;56.85;;;30.13;;
38797;SDS011;24546;52.240;16.826;2022-12-20T13:55:53;60.27;;;29.80;;
38797;SDS011;24546;52.240;16.826;2022-12-20T14:01:02;55.05;;;28.13;;
38797;SDS011;24546;52.240;16.826;2022-12-20T14:06:08;53.17;;;29.67;;
38797;SDS011;24546;52.240;16.826;2022-12-20T14:11:12;52.60;;;26.90;;
38797;SDS011;24546;52.240;16.826;2022-12-20T14:16:16;48.70;;;25.10;;
38797;SDS011;24546;52.240;16.826;2022-12-20T14:21:17;60.72;;;30.95;;
38797;SDS011;24546;52.240;16.826;2022-12-20T14:26:21;58.03;;;30.77;;
38797;SDS011;24546;52.240;16.826;2022-12-20T14:36:32;58.95;;;29.35;;
38797;SDS011;24546;52.240;16.826;2022-12-20T14:41:35;75.30;;;40.38;;
38797;SDS011;24546;52.240;16.826;2022-12-20T14:46:40;64.80;;;33.17;;
38797;SDS011;24546;52.240;16.826;2022-12-20T14:51:51;61.67;;;30.23;;
38797;SDS011;24546;52.240;16.826;2022-12-20T14:57:09;61.35;;;31.45;;
38797;SDS011;24546;52.240;16.826;2022-12-20T15:02:26;55.55;;;29.10;;
38797;SDS011;24546;52.240;16.826;2022-12-20T15:07:45;52.73;;;26.37;;
38797;SDS011;24546;52.240;16.826;2022-12-20T15:12:46;54.05;;;26.92;;
38797;SDS011;24546;52.240;16.826;2022-12-20T15:17:47;52.05;;;28.63;;
38797;SDS011;24546;52.240;16.826;2022-12-20T15:22:48;57.13;;;29.17;;
38797;SDS011;24546;52.240;16.826;2022-12-20T15:27:49;60.60;;;29.60;;
38797;SDS011;24546;52.240;16.826;2022-12-20T15:32:50;53.45;;;27.40;;
38797;SDS011;24546;52.240;16.826;2022-12-20T15:37:51;52.72;;;28.30;;
38797;SDS011;24546;52.240;16.826;2022-12-20T15:42:52;53.60;;;27.50;;
38797;SDS011;24546;52.240;16.826;2022-12-20T15:47:53;51.80;;;29.15;;
38797;SDS011;24546;52.240;16.826;2022-12-20T15:52:54;57.90;;;29.42;;
38797;SDS011;24546;52.240;16.826;2022-12-20T15:57:55;62.28;;;29.70;;
38797;SDS011;24546;52.240;16.826;2022-12-20T16:02:56;64.30;;;31.13;;
38797;SDS011;24546;52.240;16.826;2022-12-20T16:07:58;77.78;;;42.03;;
38797;SDS011;24546;52.240;16.826;2022-12-20T16:12:59;84.53;;;42.88;;
38797;SDS011;24546;52.240;16.826;2022-12-20T16:18:00;76.57;;;39.80;;
38797;SDS011;24546;52.240;16.826;2022-12-20T16:23:01;71.22;;;35.13;;
38797;SDS011;24546;52.240;16.826;2022-12-20T16:28:03;71.07;;;33.83;;
38797;SDS011;24546;52.240;16.826;2022-12-20T16:33:04;68.60;;;32.83;;
38797;SDS011;24546;52.240;16.826;2022-12-20T16:38:06;64.05;;;32.95;;
38797;SDS011;24546;52.240;16.826;2022-12-20T16:43:11;62.45;;;31.85;;
38797;SDS011;24546;52.240;16.826;2022-12-20T16:48:14;64.53;;;34.57;;
38797;SDS011;24546;52.240;16.826;2022-12-20T16:53:15;59.67;;;31.65;;
38797;SDS011;24546;52.240;16.826;2022-12-20T16:58:16;63.50;;;29.80;;
38797;SDS011;24546;52.240;16.826;2022-12-20T17:03:17;60.10;;;30.48;;
38797;SDS011;24546;52.240;16.826;2022-12-20T17:08:18;78.07;;;36.10;;
38797;SDS011;24546;52.240;16.826;2022-12-20T17:13:18;69.07;;;34.63;;
38797;SDS011;24546;52.240;16.826;2022-12-20T17:23:26;59.03;;;28.08;;
38797;SDS011;24546;52.240;16.826;2022-12-20T17:28:27;58.35;;;28.85;;
38797;SDS011;24546;52.240;16.826;2022-12-20T17:33:29;60.20;;;29.55;;
38797;SDS011;24546;52.240;16.826;2022-12-20T17:38:30;55.50;;;28.75;;
38797;SDS011;24546;52.240;16.826;2022-12-20T17:43:31;57.33;;;30.60;;
38797;SDS011;24546;52.240;16.826;2022-12-20T17:48:32;55.47;;;28.48;;
38797;SDS011;24546;52.240;16.826;2022-12-20T17:53:33;55.15;;;26.85;;
38797;SDS011;24546;52.240;16.826;2022-12-20T17:58:34;49.55;;;25.02;;
38797;SDS011;24546;52.240;16.826;2022-12-20T18:03:35;59.83;;;28.58;;
38797;SDS011;24546;52.240;16.826;2022-12-20T18:08:36;62.55;;;29.02;;
38797;SDS011;24546;52.240;16.826;2022-12-20T18:13:40;58.70;;;30.13;;
38797;SDS011;24546;52.240;16.826;2022-12-20T18:18:43;55.67;;;26.00;;
38797;SDS011;24546;52.240;16.826;2022-12-20T18:23:44;51.08;;;25.77;;
38797;SDS011;24546;52.240;16.826;2022-12-20T18:28:47;49.13;;;25.13;;
38797;SDS011;24546;52.240;16.826;2022-12-20T18:33:50;53.05;;;27.27;;
38797;SDS011;24546;52.240;16.826;2022-12-20T18:38:52;47.58;;;26.00;;
38797;SDS011;24546;52.240;16.826;2022-12-20T18:43:56;50.20;;;26.90;;
38797;SDS011;24546;52.240;16.826;2022-12-20T18:48:59;55.05;;;29.13;;
38797;SDS011;24546;52.240;16.826;2022-12-20T18:54:01;50.70;;;27.13;;
38797;SDS011;24546;52.240;16.826;2022-12-20T18:59:02;51.97;;;28.38;;
38797;SDS011;24546;52.240;16.826;2022-12-20T19:04:05;54.35;;;30.55;;
38797;SDS011;24546;52.240;16.826;2022-12-20T19:09:08;55.63;;;27.73;;
38797;SDS011;24546;52.240;16.826;2022-12-20T19:14:14;51.75;;;26.13;;
38797;SDS011;24546;52.240;16.826;2022-12-20T19:19:15;49.95;;;25.83;;
38797;SDS011;24546;52.240;16.826;2022-12-20T19:24:16;47.80;;;25.13;;
38797;SDS011;24546;52.240;16.826;2022-12-20T19:29:17;49.15;;;25.25;;
38797;SDS011;24546;52.240;16.826;2022-12-20T19:34:18;53.80;;;26.48;;
38797;SDS011;24546;52.240;16.826;2022-12-20T19:39:20;44.97;;;24.70;;
38797;SDS011;24546;52.240;16.826;2022-12-20T19:44:22;52.25;;;26.38;;
38797;SDS011;24546;52.240;16.826;2022-12-20T19:49:23;56.95;;;27.38;;
38797;SDS011;24546;52.240;16.826;2022-12-20T19:54:24;55.67;;;28.80;;
38797;SDS011;24546;52.240;16.826;2022-12-20T19:59:25;55.30;;;28.58;;
38797;SDS011;24546;52.240;16.826;2022-12-20T20:04:26;56.08;;;27.92;;
38797;SDS011;24546;52.240;16.826;2022-12-20T20:09:27;58.72;;;29.23;;
38797;SDS011;24546;52.240;16.826;2022-12-20T20:14:29;57.28;;;28.25;;
38797;SDS011;24546;52.240;16.826;2022-12-20T20:19:30;55.20;;;29.17;;
38797;SDS011;24546;52.240;16.826;2022-12-20T20:24:31;52.65;;;28.60;;
38797;SDS011;24546;52.240;16.826;2022-12-20T20:29:32;55.38;;;28.20;;
38797;SDS011;24546;52.240;16.826;2022-12-20T20:34:33;56.65;;;29.65;;
38797;SDS011;24546;52.240;16.826;2022-12-20T20:39:34;54.95;;;29.35;;
38797;SDS011;24546;52.240;16.826;2022-12-20T20:44:35;51.47;;;25.60;;
38797;SDS011;24546;52.240;16.826;2022-12-20T20:49:36;51.95;;;28.13;;
38797;SDS011;24546;52.240;16.826;2022-12-20T20:54:37;50.33;;;26.67;;
38797;SDS011;24546;52.240;16.826;2022-12-20T20:59:38;52.20;;;27.83;;
38797;SDS011;24546;52.240;16.826;2022-12-20T21:04:39;50.47;;;25.23;;
38797;SDS011;24546;52.240;16.826;2022-12-20T21:09:40;50.10;;;27.63;;
38797;SDS011;24546;52.240;16.826;2022-12-20T21:14:41;55.53;;;27.33;;
38797;SDS011;24546;52.240;16.826;2022-12-20T21:19:42;53.85;;;26.77;;
38797;SDS011;24546;52.240;16.826;2022-12-20T21:24:43;53.95;;;27.40;;
38797;SDS011;24546;52.240;16.826;2022-12-20T21:29:44;54.28;;;28.40;;
38797;SDS011;24546;52.240;16.826;2022-12-20T21:34:45;53.85;;;28.40;;
38797;SDS011;24546;52.240;16.826;2022-12-20T21:39:46;48.63;;;25.58;;
38797;SDS011;24546;52.240;16.826;2022-12-20T21:44:47;49.72;;;26.13;;
38797;SDS011;24546;52.240;16.826;2022-12-20T21:49:49;51.53;;;25.80;;
38797;SDS011;24546;52.240;16.826;2022-12-20T21:54:50;48.95;;;27.35;;
38797;SDS011;24546;52.240;16.826;2022-12-20T21:59:51;51.13;;;26.27;;
38797;SDS011;24546;52.240;16.826;2022-12-20T22:04:52;49.20;;;24.70;;
38797;SDS011;24546;52.240;16.826;2022-12-20T22:09:53;50.00;;;26.42;;
38797;SDS011;24546;52.240;16.826;2022-12-20T22:14:53;58.65;;;31.25;;
38797;SDS011;24546;52.240;16.826;2022-12-20T22:19:55;56.63;;;27.77;;
38797;SDS011;24546;52.240;16.826;2022-12-20T22:24:56;51.40;;;27.10;;
38797;SDS011;24546;52.240;16.826;2022-12-20T22:29:57;49.97;;;27.02;;
38797;SDS011;24546;52.240;16.826;2022-12-20T22:34:58;57.78;;;29.00;;
38797;SDS011;24546;52.240;16.826;2022-12-20T22:39:59;56.88;;;27.15;;
38797;SDS011;24546;52.240;16.826;2022-12-20T22:45:00;51.13;;;25.08;;
38797;SDS011;24546;52.240;16.826;2022-12-20T22:50:02;55.67;;;26.80;;
38797;SDS011;24546;52.240;16.826;2022-12-20T22:55:04;55.35;;;28.17;;
38797;SDS011;24546;52.240;16.826;2022-12-20T23:00:06;51.75;;;28.33;;
38797;SDS011;24546;52.240;16.826;2022-12-20T23:05:12;51.85;;;27.05;;
38797;SDS011;24546;52.240;16.826;2022-12-20T23:10:15;51.97;;;27.52;;
38797;SDS011;24546;52.240;16.826;2022-12-20T23:15:36;55.63;;;27.65;;
38797;SDS011;24546;52.240;16.826;2022-12-20T23:20:40;52.15;;;28.52;;
38797;SDS011;24546;52.240;16.826;2022-12-20T23:26:12;51.95;;;27.33;;
38797;SDS011;24546;52.240;16.826;2022-12-20T23:31:14;44.72;;;25.83;;
38797;SDS011;24546;52.240;16.826;2022-12-20T23:36:15;51.85;;;26.73;;
38797;SDS011;24546;52.240;16.826;2022-12-20T23:41:16;47.97;;;26.00;;
38797;SDS011;24546;52.240;16.826;2022-12-20T23:46:18;51.50;;;24.85;;
38797;SDS011;24546;52.240;16.826;2022-12-20T23:51:21;45.53;;;24.42;;
38797;SDS011;24546;52.240;16.826;2022-12-20T23:56:22;48.75;;;26.83;;
